createdAt,value
2023-02-16T00:00:44.976Z,6.94
2023-02-16T00:03:11.354Z,6.91
2023-02-16T00:05:37.630Z,6.89
2023-02-16T00:08:04.103Z,6.87
2023-02-16T00:10:30.435Z,6.84
2023-02-16T00:12:56.807Z,6.81
2023-02-16T00:15:23.217Z,6.80
2023-02-16T00:17:49.565Z,6.77
2023-02-16T00:20:15.903Z,6.75
2023-02-16T00:22:42.231Z,6.72
2023-02-16T00:25:08.577Z,6.70
2023-02-16T00:27:34.895Z,6.68
2023-02-16T00:30:01.296Z,6.65
2023-02-16T00:32:27.631Z,6.63
2023-02-16T00:34:54.028Z,6.61
2023-02-16T00:37:20.376Z,6.59
2023-02-16T00:39:46.744Z,6.56
2023-02-16T00:42:15.509Z,6.55
2023-02-16T00:44:41.848Z,6.54
2023-02-16T00:47:08.179Z,6.52
2023-02-16T00:49:34.563Z,6.49
2023-02-16T00:52:00.916Z,6.49
2023-02-16T00:54:27.265Z,6.48
2023-02-16T00:56:53.572Z,6.46
2023-02-16T00:59:19.996Z,6.44
2023-02-16T01:01:46.378Z,6.44
2023-02-16T01:04:12.708Z,6.43
2023-02-16T01:06:39.048Z,6.40
2023-02-16T01:09:05.417Z,6.38
2023-02-16T01:11:31.731Z,6.35
2023-02-16T01:13:58.117Z,6.34
2023-02-16T01:16:24.440Z,6.34
2023-02-16T01:18:50.820Z,6.33
2023-02-16T01:21:17.149Z,6.33
2023-02-16T01:23:43.525Z,6.31
2023-02-16T01:26:09.845Z,6.28
2023-02-16T01:28:36.265Z,6.26
2023-02-16T01:31:03.014Z,6.24
2023-02-16T01:33:28.975Z,6.25
2023-02-16T01:35:55.275Z,6.22
2023-02-16T01:38:21.643Z,6.20
2023-02-16T01:40:48.013Z,6.19
2023-02-16T01:43:14.358Z,6.19
2023-02-16T01:45:40.717Z,6.17
2023-02-16T01:48:07.077Z,6.15
2023-02-16T01:50:33.484Z,6.12
2023-02-16T01:52:59.821Z,6.11
2023-02-16T01:55:26.192Z,6.07
2023-02-16T01:57:52.518Z,6.06
2023-02-16T02:00:18.886Z,6.03
2023-02-16T02:02:45.330Z,6.00
2023-02-16T02:05:11.656Z,6.01
2023-02-16T02:07:38.037Z,5.99
2023-02-16T02:10:04.377Z,5.97
2023-02-16T02:12:30.752Z,5.96
2023-02-16T02:14:57.072Z,5.93
2023-02-16T02:17:23.454Z,5.92
2023-02-16T02:19:50.116Z,5.93
2023-02-16T02:22:16.461Z,5.92
2023-02-16T02:24:42.814Z,5.91
2023-02-16T02:27:09.200Z,5.88
2023-02-16T02:29:35.566Z,5.85
2023-02-16T02:32:01.988Z,5.83
2023-02-16T02:34:28.303Z,5.81
2023-02-16T02:36:54.681Z,5.79
2023-02-16T02:39:21.039Z,5.79
2023-02-16T02:41:47.424Z,5.77
2023-02-16T02:44:13.777Z,5.76
2023-02-16T02:46:40.259Z,5.74
2023-02-16T02:49:06.565Z,5.74
2023-02-16T02:51:32.951Z,5.73
2023-02-16T02:53:59.265Z,5.70
2023-02-16T02:56:25.646Z,5.71
2023-02-16T02:58:51.973Z,5.70
2023-02-16T03:01:18.365Z,5.68
2023-02-16T03:03:44.704Z,5.64
2023-02-16T03:06:11.090Z,5.65
2023-02-16T03:08:37.446Z,5.63
2023-02-16T03:11:04.190Z,5.61
2023-02-16T03:13:30.153Z,5.59
2023-02-16T03:15:56.558Z,5.55
2023-02-16T03:18:22.840Z,5.54
2023-02-16T03:20:49.171Z,5.53
2023-02-16T03:23:15.487Z,5.53
2023-02-16T03:25:41.835Z,5.52
2023-02-16T03:28:08.190Z,5.49
2023-02-16T03:30:34.647Z,5.48
2023-02-16T03:33:00.854Z,5.47
2023-02-16T03:35:27.198Z,5.45
2023-02-16T03:37:53.597Z,5.45
2023-02-16T03:40:19.975Z,5.43
2023-02-16T03:42:46.327Z,5.43
2023-02-16T03:45:12.753Z,5.42
2023-02-16T03:47:39.107Z,5.40
2023-02-16T03:50:05.500Z,5.38
2023-02-16T03:52:31.862Z,5.37
2023-02-16T03:54:58.239Z,5.35
2023-02-16T03:57:24.553Z,5.35
2023-02-16T03:59:50.949Z,5.33
2023-02-16T04:02:17.428Z,5.32
2023-02-16T04:04:43.678Z,5.31
2023-02-16T04:07:10.571Z,5.28
2023-02-16T04:09:36.923Z,5.26
2023-02-16T04:12:03.558Z,5.26
2023-02-16T04:14:29.891Z,5.25
2023-02-16T04:16:56.252Z,5.24
2023-02-16T04:19:22.601Z,5.22
2023-02-16T04:21:48.967Z,5.20
2023-02-16T04:24:15.622Z,5.18
2023-02-16T04:26:41.936Z,5.18
2023-02-16T04:29:08.334Z,5.16
2023-02-16T04:31:34.826Z,5.15
2023-02-16T04:34:01.081Z,5.14
2023-02-16T04:36:27.424Z,5.10
2023-02-16T04:38:53.738Z,5.09
2023-02-16T04:41:20.126Z,5.07
2023-02-16T04:43:46.473Z,5.04
2023-02-16T04:46:12.859Z,5.03
2023-02-16T04:48:39.181Z,5.02
2023-02-16T04:51:05.939Z,4.99
2023-02-16T04:53:31.906Z,4.97
2023-02-16T04:55:58.374Z,4.94
2023-02-16T04:58:24.730Z,4.92
2023-02-16T05:00:51.153Z,4.91
2023-02-16T05:03:17.494Z,4.90
2023-02-16T05:05:43.911Z,4.88
2023-02-16T05:08:10.273Z,4.88
2023-02-16T05:10:36.634Z,4.86
2023-02-16T05:13:03.198Z,4.84
2023-02-16T05:15:29.566Z,4.83
2023-02-16T05:17:55.829Z,4.83
2023-02-16T05:20:22.219Z,4.83
2023-02-16T05:22:48.534Z,4.83
2023-02-16T05:25:15.012Z,4.84
2023-02-16T05:27:41.509Z,4.85
2023-02-16T05:30:07.856Z,4.86
2023-02-16T05:32:34.173Z,4.87
2023-02-16T05:35:00.685Z,4.87
2023-02-16T05:37:27.062Z,4.93
2023-02-16T05:39:53.402Z,5.01
2023-02-16T05:42:19.855Z,5.12
2023-02-16T05:44:46.229Z,5.26
2023-02-16T05:47:12.607Z,5.38
2023-02-16T05:49:38.958Z,5.53
2023-02-16T05:52:05.320Z,5.69
2023-02-16T05:54:31.788Z,5.86
2023-02-16T05:56:58.104Z,6.04
2023-02-16T05:59:24.467Z,6.23
2023-02-16T06:01:52.343Z,6.44
2023-02-16T06:04:17.192Z,6.64
2023-02-16T06:06:45.765Z,6.83
2023-02-16T06:09:12.124Z,7.03
2023-02-16T06:11:38.477Z,7.23
2023-02-16T06:14:04.886Z,7.41
2023-02-16T06:16:31.220Z,7.59
2023-02-16T06:18:57.798Z,7.78
2023-02-16T06:21:24.200Z,7.94
2023-02-16T06:23:50.542Z,8.12
2023-02-16T06:26:16.924Z,8.29
2023-02-16T06:28:43.246Z,8.47
2023-02-16T06:31:09.703Z,8.67
2023-02-16T06:33:36.086Z,8.87
2023-02-16T06:36:02.466Z,9.07
2023-02-16T06:38:28.809Z,9.29
2023-02-16T06:40:55.218Z,9.52
2023-02-16T06:43:21.603Z,9.74
2023-02-16T06:45:47.917Z,10.00
2023-02-16T06:48:14.565Z,10.23
2023-02-16T06:50:40.930Z,10.47
2023-02-16T06:53:07.269Z,10.71
2023-02-16T06:55:33.679Z,10.96
2023-02-16T06:58:00.044Z,11.22
2023-02-16T07:00:26.484Z,11.49
2023-02-16T07:02:52.811Z,11.75
2023-02-16T07:05:19.114Z,12.00
2023-02-16T07:07:45.498Z,12.26
2023-02-16T07:10:11.834Z,12.54
2023-02-16T07:12:38.249Z,12.80
2023-02-16T07:15:04.609Z,13.05
2023-02-16T07:17:31.007Z,13.31
2023-02-16T07:19:59.899Z,13.56
2023-02-16T07:22:24.250Z,13.84
2023-02-16T07:24:50.605Z,14.09
2023-02-16T07:27:16.945Z,14.35
2023-02-16T07:29:44.280Z,14.60
2023-02-16T07:32:10.751Z,14.85
2023-02-16T07:34:37.235Z,15.12
2023-02-16T07:37:04.764Z,15.37
2023-02-16T07:39:31.117Z,15.63
2023-02-16T07:41:57.470Z,15.87
2023-02-16T07:44:23.785Z,16.13
2023-02-16T07:46:50.247Z,16.37
2023-02-16T07:49:16.623Z,16.64
2023-02-16T07:51:43.017Z,16.88
2023-02-16T07:54:09.393Z,17.13
2023-02-16T07:56:35.739Z,17.39
2023-02-16T07:59:02.543Z,17.64
2023-02-16T08:01:28.929Z,17.88
2023-02-16T08:03:57.412Z,18.10
2023-02-16T08:06:23.751Z,18.34
2023-02-16T08:08:50.080Z,18.57
2023-02-16T08:11:16.482Z,18.82
2023-02-16T08:13:42.776Z,19.05
2023-02-16T08:16:09.202Z,19.28
2023-02-16T08:18:35.517Z,19.52
2023-02-16T08:21:04.519Z,19.76
2023-02-16T08:23:28.310Z,20.00
2023-02-16T08:25:54.684Z,20.23
2023-02-16T08:28:21.045Z,20.47
2023-02-16T08:30:47.493Z,20.69
2023-02-16T08:33:13.807Z,20.91
2023-02-16T08:35:40.145Z,21.12
2023-02-16T08:38:06.561Z,21.34
2023-02-16T08:40:33.198Z,21.57
2023-02-16T08:42:59.513Z,21.79
2023-02-16T08:45:25.964Z,22.00
2023-02-16T08:47:52.317Z,22.22
2023-02-16T08:50:18.657Z,22.45
2023-02-16T08:52:45.027Z,22.64
2023-02-16T08:55:11.470Z,22.86
2023-02-16T08:57:37.876Z,23.05
2023-02-16T09:00:04.175Z,23.25
2023-02-16T09:02:30.615Z,23.46
2023-02-16T09:04:56.965Z,23.63
2023-02-16T09:07:23.337Z,23.81
2023-02-16T09:09:49.796Z,23.99
2023-02-16T09:12:16.118Z,24.18
2023-02-16T09:14:42.449Z,24.37
2023-02-16T09:17:08.835Z,24.55
2023-02-16T09:19:35.128Z,24.75
2023-02-16T09:22:01.495Z,24.93
2023-02-16T09:24:27.879Z,25.11
2023-02-16T09:26:54.198Z,25.31
2023-02-16T09:29:20.646Z,25.47
2023-02-16T09:31:47.214Z,25.64
2023-02-16T09:34:13.594Z,25.79
2023-02-16T09:36:39.952Z,25.96
2023-02-16T09:39:06.395Z,26.14
2023-02-16T09:41:32.710Z,26.30
2023-02-16T09:43:59.121Z,26.45
2023-02-16T09:46:25.605Z,26.62
2023-02-16T09:48:51.943Z,26.77
2023-02-16T09:51:18.928Z,26.92
2023-02-16T09:53:45.496Z,27.08
2023-02-16T09:56:11.852Z,27.24
2023-02-16T09:58:38.280Z,27.39
2023-02-16T10:01:04.576Z,27.54
2023-02-16T10:03:30.949Z,27.69
2023-02-16T10:05:57.268Z,27.86
2023-02-16T10:08:23.614Z,27.99
2023-02-16T10:10:49.939Z,28.13
2023-02-16T10:13:16.399Z,28.26
2023-02-16T10:15:42.781Z,28.39
2023-02-16T10:18:09.123Z,28.51
2023-02-16T10:20:35.774Z,28.63
2023-02-16T10:23:02.164Z,28.77
2023-02-16T10:25:28.490Z,28.89
2023-02-16T10:27:54.886Z,29.03
2023-02-16T10:30:21.522Z,29.14
2023-02-16T10:32:47.582Z,29.26
2023-02-16T10:35:14.015Z,29.40
2023-02-16T10:37:40.489Z,29.52
2023-02-16T10:40:06.844Z,29.65
2023-02-16T10:42:33.238Z,29.76
2023-02-16T10:44:59.590Z,29.87
2023-02-16T10:47:26.099Z,29.96
2023-02-16T10:49:52.420Z,30.05
2023-02-16T10:52:18.817Z,30.13
2023-02-16T10:54:45.176Z,30.21
2023-02-16T10:57:11.595Z,30.29
2023-02-16T10:59:37.956Z,30.38
2023-02-16T11:02:04.325Z,30.45
2023-02-16T11:04:30.793Z,30.53
2023-02-16T11:06:57.099Z,30.61
2023-02-16T11:09:23.429Z,30.69
2023-02-16T11:11:50.154Z,30.77
2023-02-16T11:14:16.504Z,30.84
2023-02-16T11:16:42.897Z,30.90
2023-02-16T11:19:09.230Z,30.99
2023-02-16T11:21:35.645Z,31.05
2023-02-16T11:24:02.000Z,31.11
2023-02-16T11:26:28.329Z,31.15
2023-02-16T11:28:54.668Z,31.19
2023-02-16T11:31:21.136Z,31.24
2023-02-16T11:33:47.411Z,31.28
2023-02-16T11:36:13.788Z,31.34
2023-02-16T11:38:40.109Z,31.39
2023-02-16T11:41:06.932Z,31.46
2023-02-16T11:43:32.920Z,31.52
2023-02-16T11:45:59.258Z,31.55
2023-02-16T11:48:25.580Z,31.57
2023-02-16T11:50:53.674Z,31.57
2023-02-16T11:53:18.363Z,31.57
2023-02-16T11:55:44.750Z,31.56
2023-02-16T11:58:11.069Z,31.54
2023-02-16T12:00:37.491Z,31.54
2023-02-16T12:03:04.002Z,31.56
2023-02-16T12:05:30.431Z,31.55
2023-02-16T12:07:56.841Z,31.56
2023-02-16T12:10:23.195Z,31.55
2023-02-16T12:12:49.527Z,31.54
2023-02-16T12:15:15.993Z,31.53
2023-02-16T12:17:42.310Z,31.52
2023-02-16T12:20:08.725Z,31.53
2023-02-16T12:22:35.333Z,31.53
2023-02-16T12:25:01.725Z,31.50
2023-02-16T12:27:28.046Z,31.51
2023-02-16T12:29:54.533Z,31.50
2023-02-16T12:32:20.835Z,31.51
2023-02-16T12:34:48.749Z,31.48
2023-02-16T12:37:13.608Z,31.45
2023-02-16T12:39:39.946Z,31.44
2023-02-16T12:42:06.317Z,31.41
2023-02-16T12:44:32.726Z,31.37
2023-02-16T12:46:59.085Z,31.36
2023-02-16T12:49:25.446Z,31.33
2023-02-16T12:51:51.798Z,31.28
2023-02-16T12:54:18.178Z,31.24
2023-02-16T12:56:44.531Z,31.19
2023-02-16T12:59:10.906Z,31.14
2023-02-16T13:01:37.460Z,31.10
2023-02-16T13:04:03.811Z,31.05
2023-02-16T13:06:30.250Z,31.00
2023-02-16T13:08:56.646Z,30.96
2023-02-16T13:11:22.985Z,30.89
2023-02-16T13:13:49.413Z,30.82
2023-02-16T13:16:28.938Z,30.76
2023-02-16T13:18:42.277Z,30.69
2023-02-16T13:21:08.665Z,30.61
2023-02-16T13:23:35.002Z,30.53
2023-02-16T13:26:01.600Z,30.44
2023-02-16T13:28:28.012Z,30.36
2023-02-16T13:30:54.543Z,30.27
2023-02-16T13:33:20.648Z,30.16
2023-02-16T13:35:46.975Z,30.05
2023-02-16T13:38:13.370Z,29.95
2023-02-16T13:40:39.806Z,29.87
2023-02-16T13:43:06.206Z,29.76
2023-02-16T13:45:32.662Z,29.67
2023-02-16T13:47:59.384Z,29.56
2023-02-16T13:50:25.764Z,29.49
2023-02-16T13:52:52.092Z,29.35
2023-02-16T13:55:18.456Z,29.16
2023-02-16T13:57:50.151Z,28.92
2023-02-16T14:00:11.171Z,28.66
2023-02-16T14:02:37.578Z,28.45
2023-02-16T14:05:03.911Z,28.21
2023-02-16T14:07:30.260Z,27.95
2023-02-16T14:09:56.645Z,27.73
2023-02-16T14:12:23.473Z,27.50
2023-02-16T14:14:50.874Z,27.24
2023-02-16T14:17:16.172Z,27.01
2023-02-16T14:19:42.503Z,26.73
2023-02-16T14:22:08.885Z,26.48
2023-02-16T14:24:35.210Z,26.24
2023-02-16T14:27:01.758Z,25.99
2023-02-16T14:29:28.135Z,25.78
2023-02-16T14:31:54.557Z,25.60
2023-02-16T14:34:20.849Z,25.38
2023-02-16T14:36:47.211Z,25.24
2023-02-16T14:39:13.574Z,25.10
2023-02-16T14:41:39.920Z,24.98
2023-02-16T14:44:06.314Z,24.87
2023-02-16T14:46:33.092Z,24.75
2023-02-16T14:49:01.684Z,24.60
2023-02-16T14:51:28.078Z,24.47
2023-02-16T14:53:54.453Z,24.33
2023-02-16T14:56:20.789Z,24.17
2023-02-16T14:58:47.212Z,24.08
2023-02-16T15:01:13.637Z,23.91
2023-02-16T15:03:40.351Z,23.74
2023-02-16T15:06:06.831Z,23.65
2023-02-16T15:08:32.740Z,23.50
2023-02-16T15:10:59.062Z,23.41
2023-02-16T15:13:25.417Z,23.33
2023-02-16T15:15:51.859Z,23.23
2023-02-16T15:18:18.244Z,23.11
2023-02-16T15:20:44.555Z,23.02
2023-02-16T15:23:10.952Z,22.90
2023-02-16T15:25:37.499Z,22.80
2023-02-16T15:28:03.826Z,22.70
2023-02-16T15:30:30.263Z,22.62
2023-02-16T15:32:56.751Z,22.51
2023-02-16T15:35:23.061Z,22.48
2023-02-16T15:37:49.450Z,22.45
2023-02-16T15:40:25.844Z,22.39
2023-02-16T15:42:43.253Z,22.29
2023-02-16T15:45:09.735Z,22.24
2023-02-16T15:47:36.083Z,22.19
2023-02-16T15:50:02.564Z,22.12
2023-02-16T15:52:28.945Z,21.99
2023-02-16T15:54:55.256Z,21.84
2023-02-16T15:57:21.915Z,21.75
2023-02-16T15:59:48.240Z,21.63
2023-02-16T16:02:14.670Z,21.51
2023-02-16T16:04:41.048Z,21.39
2023-02-16T16:07:07.351Z,21.28
2023-02-16T16:09:33.672Z,21.17
2023-02-16T16:12:00.108Z,21.00
2023-02-16T16:14:26.418Z,20.91
2023-02-16T16:16:53.236Z,20.69
2023-02-16T16:19:19.579Z,20.51
2023-02-16T16:21:45.957Z,20.39
2023-02-16T16:24:12.373Z,20.39
2023-02-16T16:26:38.817Z,20.33
2023-02-16T16:29:05.076Z,20.20
2023-02-16T16:31:31.529Z,20.08
2023-02-16T16:33:57.790Z,19.98
2023-02-16T16:36:24.183Z,19.86
2023-02-16T16:38:50.529Z,19.71
2023-02-16T16:41:16.918Z,19.62
2023-02-16T16:43:43.362Z,19.44
2023-02-16T16:46:09.758Z,19.34
2023-02-16T16:48:36.090Z,19.22
2023-02-16T16:51:02.644Z,19.13
2023-02-16T16:53:28.873Z,19.08
2023-02-16T16:55:55.208Z,18.93
2023-02-16T16:58:21.558Z,18.80
2023-02-16T17:00:48.168Z,18.72
2023-02-16T17:03:14.646Z,18.61
2023-02-16T17:05:41.073Z,18.50
2023-02-16T17:08:07.363Z,18.39
2023-02-16T17:10:33.782Z,18.31
2023-02-16T17:13:00.130Z,18.19
2023-02-16T17:15:26.553Z,18.05
2023-02-16T17:17:52.862Z,17.94
2023-02-16T17:20:19.213Z,17.84
2023-02-16T17:22:45.545Z,17.74
2023-02-16T17:25:11.920Z,17.66
2023-02-16T17:27:38.307Z,17.56
2023-02-16T17:30:04.692Z,17.46
2023-02-16T17:32:31.081Z,17.35
2023-02-16T17:34:57.434Z,17.25
2023-02-16T17:37:23.798Z,17.17
2023-02-16T17:39:50.162Z,17.08
2023-02-16T17:42:16.530Z,17.02
2023-02-16T17:44:42.894Z,16.94
2023-02-16T17:47:09.456Z,16.85
2023-02-16T17:49:35.841Z,16.78
2023-02-16T17:52:02.162Z,16.72
2023-02-16T17:54:28.551Z,16.64
2023-02-16T17:56:55.110Z,16.57
2023-02-16T17:59:21.509Z,16.50
2023-02-16T18:01:47.887Z,16.43
2023-02-16T18:04:14.276Z,16.36
2023-02-16T18:06:40.556Z,16.30
2023-02-16T18:09:06.947Z,16.21
2023-02-16T18:11:33.291Z,16.13
2023-02-16T18:13:59.680Z,16.05
2023-02-16T18:16:26.080Z,15.98
2023-02-16T18:18:52.473Z,15.90
2023-02-16T18:21:18.785Z,15.81
2023-02-16T18:23:45.128Z,15.74
2023-02-16T18:26:11.540Z,15.67
2023-02-16T18:28:37.856Z,15.58
2023-02-16T18:31:05.445Z,15.52
2023-02-16T18:33:31.828Z,15.45
2023-02-16T18:35:58.465Z,15.37
2023-02-16T18:38:24.850Z,15.31
2023-02-16T18:40:51.438Z,15.22
2023-02-16T18:43:17.843Z,15.16
2023-02-16T18:45:44.199Z,15.09
2023-02-16T18:48:10.564Z,15.05
2023-02-16T18:50:36.928Z,14.93
2023-02-16T18:53:03.303Z,14.85
2023-02-16T18:55:29.894Z,14.80
2023-02-16T18:57:56.292Z,14.75
2023-02-16T19:00:22.668Z,14.70
2023-02-16T19:02:49.011Z,14.65
2023-02-16T19:05:15.330Z,14.59
2023-02-16T19:07:41.717Z,14.51
2023-02-16T19:10:08.086Z,14.44
2023-02-16T19:12:34.602Z,14.35
2023-02-16T19:15:01.218Z,14.28
2023-02-16T19:17:27.597Z,14.22
2023-02-16T19:19:53.906Z,14.15
2023-02-16T19:22:20.326Z,14.07
2023-02-16T19:24:46.877Z,14.02
2023-02-16T19:27:13.203Z,13.96
2023-02-16T19:29:39.596Z,13.89
2023-02-16T19:32:07.134Z,13.83
2023-02-16T19:34:33.648Z,13.77
2023-02-16T19:37:00.160Z,13.72
2023-02-16T19:39:26.517Z,13.65
2023-02-16T19:41:52.898Z,13.59
2023-02-16T19:44:19.211Z,13.53
2023-02-16T19:46:45.550Z,13.47
2023-02-16T19:49:11.914Z,13.41
2023-02-16T19:51:38.252Z,13.35
2023-02-16T19:54:04.623Z,13.29
2023-02-16T19:56:31.071Z,13.25
2023-02-16T19:58:57.442Z,13.19
2023-02-16T20:01:23.889Z,13.16
2023-02-16T20:03:50.186Z,13.11
2023-02-16T20:06:16.566Z,13.04
2023-02-16T20:08:42.879Z,13.02
2023-02-16T20:11:09.265Z,12.96
2023-02-16T20:13:35.609Z,12.91
2023-02-16T20:16:02.000Z,12.86
2023-02-16T20:18:28.271Z,12.81
2023-02-16T20:20:54.693Z,12.76
2023-02-16T20:23:21.055Z,12.70
2023-02-16T20:25:47.427Z,12.65
2023-02-16T20:28:14.052Z,12.62
2023-02-16T20:30:40.733Z,12.57
2023-02-16T20:33:07.098Z,12.52
2023-02-16T20:35:33.780Z,12.46
2023-02-16T20:38:00.142Z,12.42
2023-02-16T20:40:27.977Z,12.38
2023-02-16T20:42:54.441Z,12.32
2023-02-16T20:45:20.835Z,12.28
2023-02-16T20:47:47.204Z,12.22
2023-02-16T20:50:13.759Z,12.18
2023-02-16T20:52:40.138Z,12.12
2023-02-16T20:55:06.521Z,12.07
2023-02-16T20:57:32.873Z,12.01
2023-02-16T20:59:59.256Z,11.96
2023-02-16T21:02:25.722Z,11.92
2023-02-16T21:04:51.947Z,11.89
2023-02-16T21:07:18.361Z,11.87
2023-02-16T21:09:44.983Z,11.86
2023-02-16T21:12:11.306Z,11.81
2023-02-16T21:14:40.050Z,11.79
2023-02-16T21:17:06.645Z,11.75
2023-02-16T21:19:33.046Z,11.70
2023-02-16T21:21:59.399Z,11.67
2023-02-16T21:24:25.737Z,11.65
2023-02-16T21:26:52.067Z,11.62
2023-02-16T21:29:18.469Z,11.59
2023-02-16T21:31:45.046Z,11.58
2023-02-16T21:34:11.317Z,11.55
2023-02-16T21:36:37.663Z,11.52
2023-02-16T21:39:04.002Z,11.50
2023-02-16T21:41:30.329Z,11.46
2023-02-16T21:43:56.665Z,11.42
2023-02-16T21:46:23.040Z,11.39
2023-02-16T21:48:49.405Z,11.36
2023-02-16T21:51:15.762Z,11.32
2023-02-16T21:53:42.175Z,11.28
2023-02-16T21:56:08.633Z,11.23
2023-02-16T21:58:34.866Z,11.18
2023-02-16T22:01:01.396Z,11.14
2023-02-16T22:03:27.696Z,11.09
2023-02-16T22:05:54.057Z,11.05
2023-02-16T22:08:20.389Z,11.02
2023-02-16T22:10:46.831Z,10.99
2023-02-16T22:13:13.286Z,10.95
2023-02-16T22:15:39.603Z,10.90
2023-02-16T22:18:05.995Z,10.85
2023-02-16T22:20:32.353Z,10.82
2023-02-16T22:22:58.709Z,10.78
2023-02-16T22:25:25.065Z,10.78
2023-02-16T22:27:51.407Z,10.75
2023-02-16T22:30:17.752Z,10.71
2023-02-16T22:32:44.122Z,10.70
2023-02-16T22:35:10.434Z,10.66
2023-02-16T22:37:36.832Z,10.64
2023-02-16T22:40:03.185Z,10.62
2023-02-16T22:42:29.560Z,10.60
2023-02-16T22:44:56.093Z,10.57
2023-02-16T22:47:22.447Z,10.55
2023-02-16T22:49:48.809Z,10.52
2023-02-16T22:52:15.192Z,10.50
2023-02-16T22:54:41.575Z,10.48
2023-02-16T22:57:07.949Z,10.43
2023-02-16T22:59:34.272Z,10.40
2023-02-16T23:02:00.626Z,10.36
2023-02-16T23:04:27.012Z,10.36
2023-02-16T23:06:53.369Z,10.33
2023-02-16T23:09:19.718Z,10.33
2023-02-16T23:11:46.136Z,10.31
2023-02-16T23:14:12.457Z,10.28
2023-02-16T23:16:38.895Z,10.26
2023-02-16T23:19:05.233Z,10.24
2023-02-16T23:21:31.627Z,10.22
2023-02-16T23:23:58.002Z,10.18
2023-02-16T23:26:24.388Z,10.16
2023-02-16T23:28:50.748Z,10.14
2023-02-16T23:31:17.271Z,10.11
2023-02-16T23:33:43.449Z,10.08
2023-02-16T23:36:09.795Z,10.05
2023-02-16T23:38:36.130Z,10.03
2023-02-16T23:41:02.801Z,10.00
2023-02-16T23:43:29.210Z,9.97
2023-02-16T23:45:55.621Z,9.95
2023-02-16T23:48:21.896Z,9.92
2023-02-16T23:50:48.336Z,9.90
2023-02-16T23:53:14.681Z,9.86
2023-02-16T23:55:41.097Z,9.83
2023-02-16T23:58:07.444Z,9.80
